sensor_id;sensor_type;location;lat;lon;timestamp;P1;durP1;ratioP1;P2;durP2;ratioP2
45007;SDS011;30743;52.008;5.644;2022-07-23T00:00:01;5.70;;;2.42;;
45007;SDS011;30743;52.008;5.644;2022-07-23T00:02:27;4.68;;;2.08;;
45007;SDS011;30743;52.008;5.644;2022-07-23T00:04:53;5.38;;;2.13;;
45007;SDS011;30743;52.008;5.644;2022-07-23T00:07:18;4.90;;;2.00;;
45007;SDS011;30743;52.008;5.644;2022-07-23T00:09:44;4.15;;;2.33;;
45007;SDS011;30743;52.008;5.644;2022-07-23T00:12:09;2.00;;;1.80;;
45007;SDS011;30743;52.008;5.644;2022-07-23T00:14:35;5.57;;;2.67;;
45007;SDS011;30743;52.008;5.644;2022-07-23T00:17:00;3.63;;;2.17;;
45007;SDS011;30743;52.008;5.644;2022-07-23T00:19:26;3.30;;;2.22;;
45007;SDS011;30743;52.008;5.644;2022-07-23T00:21:51;4.93;;;2.40;;
45007;SDS011;30743;52.008;5.644;2022-07-23T00:24:17;2.85;;;2.40;;
45007;SDS011;30743;52.008;5.644;2022-07-23T00:26:42;2.72;;;2.03;;
45007;SDS011;30743;52.008;5.644;2022-07-23T00:29:08;3.15;;;1.90;;
45007;SDS011;30743;52.008;5.644;2022-07-23T00:31:33;3.88;;;2.10;;
45007;SDS011;30743;52.008;5.644;2022-07-23T00:33:59;4.25;;;2.17;;
45007;SDS011;30743;52.008;5.644;2022-07-23T00:36:26;5.72;;;2.30;;
45007;SDS011;30743;52.008;5.644;2022-07-23T00:38:52;6.07;;;2.05;;
45007;SDS011;30743;52.008;5.644;2022-07-23T00:41:18;3.78;;;1.73;;
45007;SDS011;30743;52.008;5.644;2022-07-23T00:43:43;2.90;;;1.67;;
45007;SDS011;30743;52.008;5.644;2022-07-23T00:46:09;4.30;;;2.15;;
45007;SDS011;30743;52.008;5.644;2022-07-23T00:48:34;3.50;;;2.00;;
45007;SDS011;30743;52.008;5.644;2022-07-23T00:51:00;2.60;;;2.10;;
45007;SDS011;30743;52.008;5.644;2022-07-23T00:53:25;4.20;;;1.80;;
45007;SDS011;30743;52.008;5.644;2022-07-23T00:55:51;2.70;;;1.98;;
45007;SDS011;30743;52.008;5.644;2022-07-23T00:58:18;7.13;;;2.13;;
45007;SDS011;30743;52.008;5.644;2022-07-23T01:00:44;6.63;;;1.80;;
45007;SDS011;30743;52.008;5.644;2022-07-23T01:03:10;3.70;;;2.47;;
45007;SDS011;30743;52.008;5.644;2022-07-23T01:05:35;2.55;;;2.03;;
45007;SDS011;30743;52.008;5.644;2022-07-23T01:08:01;2.97;;;2.08;;
45007;SDS011;30743;52.008;5.644;2022-07-23T01:10:27;3.33;;;2.03;;
45007;SDS011;30743;52.008;5.644;2022-07-23T01:15:25;2.83;;;1.90;;
45007;SDS011;30743;52.008;5.644;2022-07-23T01:17:51;4.55;;;2.00;;
45007;SDS011;30743;52.008;5.644;2022-07-23T01:20:17;4.10;;;1.85;;
45007;SDS011;30743;52.008;5.644;2022-07-23T01:22:43;3.35;;;1.65;;
45007;SDS011;30743;52.008;5.644;2022-07-23T01:25:09;3.13;;;1.92;;
45007;SDS011;30743;52.008;5.644;2022-07-23T01:27:34;6.35;;;2.20;;
45007;SDS011;30743;52.008;5.644;2022-07-23T01:30:00;3.08;;;1.80;;
45007;SDS011;30743;52.008;5.644;2022-07-23T01:32:27;2.85;;;1.75;;
45007;SDS011;30743;52.008;5.644;2022-07-23T01:34:53;3.08;;;2.03;;
45007;SDS011;30743;52.008;5.644;2022-07-23T01:37:18;3.17;;;2.10;;
45007;SDS011;30743;52.008;5.644;2022-07-23T01:39:44;5.05;;;1.90;;
45007;SDS011;30743;52.008;5.644;2022-07-23T01:42:09;3.88;;;1.90;;
45007;SDS011;30743;52.008;5.644;2022-07-23T01:44:35;4.15;;;2.15;;
45007;SDS011;30743;52.008;5.644;2022-07-23T01:47:00;4.55;;;1.98;;
45007;SDS011;30743;52.008;5.644;2022-07-23T01:49:26;4.57;;;1.70;;
45007;SDS011;30743;52.008;5.644;2022-07-23T01:51:51;5.40;;;2.05;;
45007;SDS011;30743;52.008;5.644;2022-07-23T01:54:26;3.35;;;1.92;;
45007;SDS011;30743;52.008;5.644;2022-07-23T01:56:52;4.38;;;2.00;;
45007;SDS011;30743;52.008;5.644;2022-07-23T01:59:17;3.05;;;1.80;;
45007;SDS011;30743;52.008;5.644;2022-07-23T02:01:43;3.95;;;1.83;;
45007;SDS011;30743;52.008;5.644;2022-07-23T02:04:08;8.77;;;2.00;;
45007;SDS011;30743;52.008;5.644;2022-07-23T02:06:34;5.93;;;1.90;;
45007;SDS011;30743;52.008;5.644;2022-07-23T02:08:59;2.40;;;1.70;;
45007;SDS011;30743;52.008;5.644;2022-07-23T02:11:25;3.35;;;2.28;;
45007;SDS011;30743;52.008;5.644;2022-07-23T02:13:50;2.63;;;1.70;;
45007;SDS011;30743;52.008;5.644;2022-07-23T02:16:16;6.95;;;2.05;;
45007;SDS011;30743;52.008;5.644;2022-07-23T02:18:41;3.90;;;2.00;;
45007;SDS011;30743;52.008;5.644;2022-07-23T02:21:07;3.63;;;1.90;;
45007;SDS011;30743;52.008;5.644;2022-07-23T02:23:32;3.65;;;2.30;;
45007;SDS011;30743;52.008;5.644;2022-07-23T02:25:58;3.28;;;1.80;;
45007;SDS011;30743;52.008;5.644;2022-07-23T02:28:23;3.70;;;2.05;;
45007;SDS011;30743;52.008;5.644;2022-07-23T02:30:49;2.72;;;1.90;;
45007;SDS011;30743;52.008;5.644;2022-07-23T02:33:14;5.53;;;2.67;;
45007;SDS011;30743;52.008;5.644;2022-07-23T02:35:40;5.03;;;2.08;;
45007;SDS011;30743;52.008;5.644;2022-07-23T02:38:05;3.28;;;1.83;;
45007;SDS011;30743;52.008;5.644;2022-07-23T02:40:31;5.95;;;2.65;;
45007;SDS011;30743;52.008;5.644;2022-07-23T02:42:57;5.25;;;2.10;;
45007;SDS011;30743;52.008;5.644;2022-07-23T02:45:22;3.75;;;1.77;;
45007;SDS011;30743;52.008;5.644;2022-07-23T02:47:48;3.22;;;2.00;;
45007;SDS011;30743;52.008;5.644;2022-07-23T02:50:13;4.53;;;1.77;;
45007;SDS011;30743;52.008;5.644;2022-07-23T02:52:39;2.42;;;1.75;;
45007;SDS011;30743;52.008;5.644;2022-07-23T02:55:05;2.72;;;1.83;;
45007;SDS011;30743;52.008;5.644;2022-07-23T02:57:31;2.03;;;1.60;;
45007;SDS011;30743;52.008;5.644;2022-07-23T02:59:56;5.05;;;3.15;;
45007;SDS011;30743;52.008;5.644;2022-07-23T03:02:22;4.53;;;1.70;;
45007;SDS011;30743;52.008;5.644;2022-07-23T03:04:48;2.67;;;1.60;;
45007;SDS011;30743;52.008;5.644;2022-07-23T03:07:15;3.95;;;1.65;;
45007;SDS011;30743;52.008;5.644;2022-07-23T03:09:41;2.80;;;1.65;;
45007;SDS011;30743;52.008;5.644;2022-07-23T03:12:06;4.03;;;1.73;;
45007;SDS011;30743;52.008;5.644;2022-07-23T03:14:32;2.85;;;1.60;;
45007;SDS011;30743;52.008;5.644;2022-07-23T03:16:58;2.05;;;1.40;;
45007;SDS011;30743;52.008;5.644;2022-07-23T03:19:24;3.58;;;1.35;;
45007;SDS011;30743;52.008;5.644;2022-07-23T03:21:50;3.47;;;1.50;;
45007;SDS011;30743;52.008;5.644;2022-07-23T03:24:15;1.75;;;1.17;;
45007;SDS011;30743;52.008;5.644;2022-07-23T03:26:42;3.47;;;1.63;;
45007;SDS011;30743;52.008;5.644;2022-07-23T03:29:08;2.80;;;1.10;;
45007;SDS011;30743;52.008;5.644;2022-07-23T03:31:34;3.58;;;1.83;;
45007;SDS011;30743;52.008;5.644;2022-07-23T03:34:00;7.65;;;2.40;;
45007;SDS011;30743;52.008;5.644;2022-07-23T03:36:25;4.00;;;2.28;;
45007;SDS011;30743;52.008;5.644;2022-07-23T03:38:52;4.32;;;3.83;;
45007;SDS011;30743;52.008;5.644;2022-07-23T03:41:18;2.63;;;2.03;;
45007;SDS011;30743;52.008;5.644;2022-07-23T03:43:45;2.75;;;2.20;;
45007;SDS011;30743;52.008;5.644;2022-07-23T03:46:11;6.20;;;1.80;;
45007;SDS011;30743;52.008;5.644;2022-07-23T03:48:37;6.45;;;2.30;;
45007;SDS011;30743;52.008;5.644;2022-07-23T03:51:02;6.80;;;2.03;;
45007;SDS011;30743;52.008;5.644;2022-07-23T03:53:28;13.80;;;2.20;;
45007;SDS011;30743;52.008;5.644;2022-07-23T03:55:54;5.82;;;2.33;;
45007;SDS011;30743;52.008;5.644;2022-07-23T03:58:19;7.47;;;1.83;;
45007;SDS011;30743;52.008;5.644;2022-07-23T04:00:45;3.65;;;1.92;;
45007;SDS011;30743;52.008;5.644;2022-07-23T04:03:11;5.00;;;1.73;;
45007;SDS011;30743;52.008;5.644;2022-07-23T04:05:36;4.15;;;2.40;;
45007;SDS011;30743;52.008;5.644;2022-07-23T04:08:02;2.35;;;1.83;;
45007;SDS011;30743;52.008;5.644;2022-07-23T04:10:27;3.28;;;1.63;;
45007;SDS011;30743;52.008;5.644;2022-07-23T04:12:53;4.53;;;2.42;;
45007;SDS011;30743;52.008;5.644;2022-07-23T04:15:18;4.13;;;1.90;;
45007;SDS011;30743;52.008;5.644;2022-07-23T04:17:44;3.65;;;2.05;;
45007;SDS011;30743;52.008;5.644;2022-07-23T04:20:11;3.67;;;1.92;;
45007;SDS011;30743;52.008;5.644;2022-07-23T04:22:36;2.08;;;1.35;;
45007;SDS011;30743;52.008;5.644;2022-07-23T04:25:02;2.97;;;1.75;;
45007;SDS011;30743;52.008;5.644;2022-07-23T04:27:28;5.97;;;2.50;;
45007;SDS011;30743;52.008;5.644;2022-07-23T04:29:53;2.25;;;1.50;;
45007;SDS011;30743;52.008;5.644;2022-07-23T04:32:19;3.22;;;2.03;;
45007;SDS011;30743;52.008;5.644;2022-07-23T04:34:44;2.38;;;1.70;;
45007;SDS011;30743;52.008;5.644;2022-07-23T04:37:10;3.33;;;1.75;;
45007;SDS011;30743;52.008;5.644;2022-07-23T04:39:35;5.32;;;1.88;;
45007;SDS011;30743;52.008;5.644;2022-07-23T04:42:01;4.50;;;2.20;;
45007;SDS011;30743;52.008;5.644;2022-07-23T04:44:26;4.47;;;1.85;;
45007;SDS011;30743;52.008;5.644;2022-07-23T04:46:52;2.95;;;1.95;;
45007;SDS011;30743;52.008;5.644;2022-07-23T04:49:17;3.45;;;2.05;;
45007;SDS011;30743;52.008;5.644;2022-07-23T04:51:43;5.05;;;2.28;;
45007;SDS011;30743;52.008;5.644;2022-07-23T04:54:08;4.72;;;2.40;;
45007;SDS011;30743;52.008;5.644;2022-07-23T04:56:34;7.50;;;2.58;;
45007;SDS011;30743;52.008;5.644;2022-07-23T04:58:59;4.40;;;2.20;;
45007;SDS011;30743;52.008;5.644;2022-07-23T05:01:25;4.05;;;2.40;;
45007;SDS011;30743;52.008;5.644;2022-07-23T05:03:50;4.35;;;2.75;;
45007;SDS011;30743;52.008;5.644;2022-07-23T05:06:16;5.57;;;3.08;;
45007;SDS011;30743;52.008;5.644;2022-07-23T05:08:41;8.32;;;3.10;;
45007;SDS011;30743;52.008;5.644;2022-07-23T05:11:07;4.35;;;2.90;;
45007;SDS011;30743;52.008;5.644;2022-07-23T05:13:32;7.53;;;3.22;;
45007;SDS011;30743;52.008;5.644;2022-07-23T05:15:58;9.10;;;3.17;;
45007;SDS011;30743;52.008;5.644;2022-07-23T05:18:23;5.22;;;3.35;;
45007;SDS011;30743;52.008;5.644;2022-07-23T05:20:49;5.38;;;3.13;;
45007;SDS011;30743;52.008;5.644;2022-07-23T05:23:14;4.90;;;3.30;;
45007;SDS011;30743;52.008;5.644;2022-07-23T05:25:40;6.15;;;3.30;;
45007;SDS011;30743;52.008;5.644;2022-07-23T05:28:05;4.63;;;3.10;;
45007;SDS011;30743;52.008;5.644;2022-07-23T05:30:31;7.47;;;3.50;;
45007;SDS011;30743;52.008;5.644;2022-07-23T05:32:57;6.85;;;3.03;;
45007;SDS011;30743;52.008;5.644;2022-07-23T05:35:22;5.88;;;3.88;;
45007;SDS011;30743;52.008;5.644;2022-07-23T05:37:48;8.40;;;3.20;;
45007;SDS011;30743;52.008;5.644;2022-07-23T05:40:13;6.40;;;3.42;;
45007;SDS011;30743;52.008;5.644;2022-07-23T05:42:39;5.88;;;3.65;;
45007;SDS011;30743;52.008;5.644;2022-07-23T05:45:06;7.28;;;3.30;;
45007;SDS011;30743;52.008;5.644;2022-07-23T05:47:45;7.15;;;3.20;;
45007;SDS011;30743;52.008;5.644;2022-07-23T05:50:13;7.75;;;3.22;;
45007;SDS011;30743;52.008;5.644;2022-07-23T05:52:39;4.18;;;3.15;;
45007;SDS011;30743;52.008;5.644;2022-07-23T05:55:07;8.20;;;3.97;;
45007;SDS011;30743;52.008;5.644;2022-07-23T05:57:34;5.30;;;3.42;;
45007;SDS011;30743;52.008;5.644;2022-07-23T05:59:59;5.95;;;3.78;;
45007;SDS011;30743;52.008;5.644;2022-07-23T06:02:25;7.78;;;3.40;;
45007;SDS011;30743;52.008;5.644;2022-07-23T06:04:51;7.90;;;3.42;;
45007;SDS011;30743;52.008;5.644;2022-07-23T06:07:16;8.20;;;3.30;;
45007;SDS011;30743;52.008;5.644;2022-07-23T06:09:42;6.15;;;3.10;;
45007;SDS011;30743;52.008;5.644;2022-07-23T06:12:07;9.60;;;3.15;;
45007;SDS011;30743;52.008;5.644;2022-07-23T06:14:33;4.05;;;2.97;;
45007;SDS011;30743;52.008;5.644;2022-07-23T06:16:58;4.70;;;2.95;;
45007;SDS011;30743;52.008;5.644;2022-07-23T06:19:24;7.03;;;3.47;;
45007;SDS011;30743;52.008;5.644;2022-07-23T06:21:50;5.13;;;3.80;;
45007;SDS011;30743;52.008;5.644;2022-07-23T06:24:15;7.65;;;3.47;;
45007;SDS011;30743;52.008;5.644;2022-07-23T06:26:41;6.88;;;3.00;;
45007;SDS011;30743;52.008;5.644;2022-07-23T06:29:06;4.07;;;3.28;;
45007;SDS011;30743;52.008;5.644;2022-07-23T06:31:32;8.15;;;3.10;;
45007;SDS011;30743;52.008;5.644;2022-07-23T06:33:58;6.70;;;2.72;;
45007;SDS011;30743;52.008;5.644;2022-07-23T06:36:24;4.43;;;3.10;;
45007;SDS011;30743;52.008;5.644;2022-07-23T06:38:49;4.65;;;3.10;;
45007;SDS011;30743;52.008;5.644;2022-07-23T06:41:15;7.13;;;3.45;;
45007;SDS011;30743;52.008;5.644;2022-07-23T06:43:40;6.65;;;3.20;;
45007;SDS011;30743;52.008;5.644;2022-07-23T06:46:06;5.55;;;2.22;;
45007;SDS011;30743;52.008;5.644;2022-07-23T06:48:32;3.63;;;2.03;;
45007;SDS011;30743;52.008;5.644;2022-07-23T06:50:59;12.27;;;2.30;;
45007;SDS011;30743;52.008;5.644;2022-07-23T06:53:24;3.67;;;2.17;;
45007;SDS011;30743;52.008;5.644;2022-07-23T06:55:50;3.97;;;1.60;;
45007;SDS011;30743;52.008;5.644;2022-07-23T06:58:15;3.40;;;1.95;;
45007;SDS011;30743;52.008;5.644;2022-07-23T07:00:41;4.03;;;1.90;;
45007;SDS011;30743;52.008;5.644;2022-07-23T07:03:06;4.97;;;1.75;;
45007;SDS011;30743;52.008;5.644;2022-07-23T07:05:32;6.43;;;2.13;;
45007;SDS011;30743;52.008;5.644;2022-07-23T07:07:57;5.22;;;2.10;;
45007;SDS011;30743;52.008;5.644;2022-07-23T07:10:23;3.25;;;1.77;;
45007;SDS011;30743;52.008;5.644;2022-07-23T07:12:48;4.35;;;2.60;;
45007;SDS011;30743;52.008;5.644;2022-07-23T07:15:14;4.22;;;2.03;;
45007;SDS011;30743;52.008;5.644;2022-07-23T07:17:39;16.83;;;2.70;;
45007;SDS011;30743;52.008;5.644;2022-07-23T07:20:07;2.20;;;1.48;;
45007;SDS011;30743;52.008;5.644;2022-07-23T07:22:33;4.55;;;2.40;;
45007;SDS011;30743;52.008;5.644;2022-07-23T07:24:58;4.60;;;1.98;;
45007;SDS011;30743;52.008;5.644;2022-07-23T07:27:24;2.78;;;2.08;;
45007;SDS011;30743;52.008;5.644;2022-07-23T07:29:49;4.80;;;2.10;;
45007;SDS011;30743;52.008;5.644;2022-07-23T07:32:15;3.28;;;1.98;;
45007;SDS011;30743;52.008;5.644;2022-07-23T07:34:40;4.43;;;2.30;;
45007;SDS011;30743;52.008;5.644;2022-07-23T07:37:06;3.58;;;2.38;;
45007;SDS011;30743;52.008;5.644;2022-07-23T07:39:31;5.07;;;2.83;;
45007;SDS011;30743;52.008;5.644;2022-07-23T07:41:57;2.35;;;1.90;;
45007;SDS011;30743;52.008;5.644;2022-07-23T07:44:22;4.75;;;2.33;;
45007;SDS011;30743;52.008;5.644;2022-07-23T07:46:48;3.72;;;1.80;;
45007;SDS011;30743;52.008;5.644;2022-07-23T07:49:13;4.78;;;2.00;;
45007;SDS011;30743;52.008;5.644;2022-07-23T07:51:39;3.50;;;2.00;;
45007;SDS011;30743;52.008;5.644;2022-07-23T07:54:04;2.97;;;2.00;;
45007;SDS011;30743;52.008;5.644;2022-07-23T07:56:30;3.95;;;2.00;;
45007;SDS011;30743;52.008;5.644;2022-07-23T07:58:55;3.78;;;2.28;;
45007;SDS011;30743;52.008;5.644;2022-07-23T08:01:21;3.70;;;1.95;;
45007;SDS011;30743;52.008;5.644;2022-07-23T08:03:46;3.58;;;2.03;;
45007;SDS011;30743;52.008;5.644;2022-07-23T08:06:12;3.78;;;2.00;;
45007;SDS011;30743;52.008;5.644;2022-07-23T08:08:38;8.15;;;1.92;;
45007;SDS011;30743;52.008;5.644;2022-07-23T08:11:03;6.80;;;2.47;;
45007;SDS011;30743;52.008;5.644;2022-07-23T08:13:29;4.05;;;2.25;;
45007;SDS011;30743;52.008;5.644;2022-07-23T08:15:54;3.80;;;2.22;;
45007;SDS011;30743;52.008;5.644;2022-07-23T08:18:20;9.77;;;2.35;;
45007;SDS011;30743;52.008;5.644;2022-07-23T08:20:45;3.33;;;2.22;;
45007;SDS011;30743;52.008;5.644;2022-07-23T08:23:11;4.70;;;2.25;;
45007;SDS011;30743;52.008;5.644;2022-07-23T08:25:38;5.80;;;2.33;;
45007;SDS011;30743;52.008;5.644;2022-07-23T08:28:07;2.85;;;2.03;;
45007;SDS011;30743;52.008;5.644;2022-07-23T08:30:38;5.18;;;2.13;;
45007;SDS011;30743;52.008;5.644;2022-07-23T08:33:05;4.30;;;2.17;;
45007;SDS011;30743;52.008;5.644;2022-07-23T08:35:34;3.75;;;2.20;;
45007;SDS011;30743;52.008;5.644;2022-07-23T08:38:05;2.95;;;1.92;;
45007;SDS011;30743;52.008;5.644;2022-07-23T08:40:34;4.35;;;2.00;;
45007;SDS011;30743;52.008;5.644;2022-07-23T08:43:06;5.25;;;2.03;;
45007;SDS011;30743;52.008;5.644;2022-07-23T08:45:41;3.63;;;2.20;;
45007;SDS011;30743;52.008;5.644;2022-07-23T08:48:09;5.10;;;1.90;;
45007;SDS011;30743;52.008;5.644;2022-07-23T08:50:37;3.65;;;2.05;;
45007;SDS011;30743;52.008;5.644;2022-07-23T08:53:07;10.10;;;2.15;;
45007;SDS011;30743;52.008;5.644;2022-07-23T08:55:33;4.70;;;2.55;;
45007;SDS011;30743;52.008;5.644;2022-07-23T08:57:59;2.83;;;2.20;;
45007;SDS011;30743;52.008;5.644;2022-07-23T09:00:25;4.57;;;2.78;;
45007;SDS011;30743;52.008;5.644;2022-07-23T09:02:50;6.15;;;2.22;;
45007;SDS011;30743;52.008;5.644;2022-07-23T09:05:17;2.30;;;1.70;;
45007;SDS011;30743;52.008;5.644;2022-07-23T09:10:45;3.95;;;2.20;;
45007;SDS011;30743;52.008;5.644;2022-07-23T09:16:00;2.90;;;1.95;;
45007;SDS011;30743;52.008;5.644;2022-07-23T09:18:46;3.40;;;2.30;;
45007;SDS011;30743;52.008;5.644;2022-07-23T09:29:12;5.57;;;1.90;;
45007;SDS011;30743;52.008;5.644;2022-07-23T09:31:43;2.58;;;1.83;;
45007;SDS011;30743;52.008;5.644;2022-07-23T09:34:20;8.55;;;1.90;;
45007;SDS011;30743;52.008;5.644;2022-07-23T09:36:49;2.83;;;1.80;;
45007;SDS011;30743;52.008;5.644;2022-07-23T09:39:22;5.00;;;1.80;;
45007;SDS011;30743;52.008;5.644;2022-07-23T09:41:54;6.40;;;2.28;;
45007;SDS011;30743;52.008;5.644;2022-07-23T09:44:20;5.15;;;2.40;;
45007;SDS011;30743;52.008;5.644;2022-07-23T09:46:47;3.70;;;1.50;;
45007;SDS011;30743;52.008;5.644;2022-07-23T09:49:21;3.75;;;1.88;;
45007;SDS011;30743;52.008;5.644;2022-07-23T09:51:51;3.92;;;2.03;;
45007;SDS011;30743;52.008;5.644;2022-07-23T09:56:49;4.43;;;1.88;;
45007;SDS011;30743;52.008;5.644;2022-07-23T09:59:16;3.63;;;1.92;;
45007;SDS011;30743;52.008;5.644;2022-07-23T10:04:13;4.97;;;2.58;;
45007;SDS011;30743;52.008;5.644;2022-07-23T10:06:39;2.75;;;1.80;;
45007;SDS011;30743;52.008;5.644;2022-07-23T10:09:08;5.13;;;1.80;;
45007;SDS011;30743;52.008;5.644;2022-07-23T10:14:03;2.70;;;1.75;;
45007;SDS011;30743;52.008;5.644;2022-07-23T10:16:30;3.20;;;1.40;;
45007;SDS011;30743;52.008;5.644;2022-07-23T10:18:56;3.85;;;1.50;;
45007;SDS011;30743;52.008;5.644;2022-07-23T10:21:42;5.97;;;2.10;;
45007;SDS011;30743;52.008;5.644;2022-07-23T10:24:16;2.72;;;2.00;;
45007;SDS011;30743;52.008;5.644;2022-07-23T10:27:02;3.75;;;2.10;;
45007;SDS011;30743;52.008;5.644;2022-07-23T10:32:26;3.10;;;2.10;;
45007;SDS011;30743;52.008;5.644;2022-07-23T10:35:07;3.80;;;1.77;;
45007;SDS011;30743;52.008;5.644;2022-07-23T10:37:39;4.20;;;1.80;;
45007;SDS011;30743;52.008;5.644;2022-07-23T10:40:22;4.88;;;2.22;;
45007;SDS011;30743;52.008;5.644;2022-07-23T10:42:51;3.03;;;2.30;;
45007;SDS011;30743;52.008;5.644;2022-07-23T10:45:28;5.53;;;2.20;;
45007;SDS011;30743;52.008;5.644;2022-07-23T10:48:23;5.38;;;1.73;;
45007;SDS011;30743;52.008;5.644;2022-07-23T10:51:10;5.82;;;2.20;;
45007;SDS011;30743;52.008;5.644;2022-07-23T10:59:24;5.50;;;1.67;;
45007;SDS011;30743;52.008;5.644;2022-07-23T11:01:50;4.10;;;1.80;;
45007;SDS011;30743;52.008;5.644;2022-07-23T11:04:15;3.95;;;1.70;;
45007;SDS011;30743;52.008;5.644;2022-07-23T11:09:25;4.28;;;2.65;;
45007;SDS011;30743;52.008;5.644;2022-07-23T11:17:30;2.00;;;1.70;;
45007;SDS011;30743;52.008;5.644;2022-07-23T11:25:09;2.05;;;1.58;;
45007;SDS011;30743;52.008;5.644;2022-07-23T11:27:39;3.80;;;2.10;;
45007;SDS011;30743;52.008;5.644;2022-07-23T11:30:06;2.42;;;2.00;;
45007;SDS011;30743;52.008;5.644;2022-07-23T11:32:37;4.40;;;2.17;;
45007;SDS011;30743;52.008;5.644;2022-07-23T11:35:21;4.40;;;2.03;;
45007;SDS011;30743;52.008;5.644;2022-07-23T11:37:53;3.35;;;1.95;;
45007;SDS011;30743;52.008;5.644;2022-07-23T11:40:27;5.03;;;1.83;;
45007;SDS011;30743;52.008;5.644;2022-07-23T11:45:48;3.45;;;1.75;;
45007;SDS011;30743;52.008;5.644;2022-07-23T11:50:49;2.47;;;1.48;;
45007;SDS011;30743;52.008;5.644;2022-07-23T11:55:48;6.57;;;2.30;;
45007;SDS011;30743;52.008;5.644;2022-07-23T11:58:13;2.35;;;1.50;;
45007;SDS011;30743;52.008;5.644;2022-07-23T12:00:40;4.75;;;1.35;;
45007;SDS011;30743;52.008;5.644;2022-07-23T12:03:06;3.58;;;1.88;;
45007;SDS011;30743;52.008;5.644;2022-07-23T12:05:33;4.38;;;2.05;;
45007;SDS011;30743;52.008;5.644;2022-07-23T12:08:00;2.73;;;1.53;;
45007;SDS011;30743;52.008;5.644;2022-07-23T12:10:30;3.40;;;1.70;;
45007;SDS011;30743;52.008;5.644;2022-07-23T12:13:04;1.73;;;1.38;;
45007;SDS011;30743;52.008;5.644;2022-07-23T12:15:44;3.63;;;1.50;;
45007;SDS011;30743;52.008;5.644;2022-07-23T12:18:14;2.17;;;1.50;;
45007;SDS011;30743;52.008;5.644;2022-07-23T12:20:42;6.30;;;1.48;;
45007;SDS011;30743;52.008;5.644;2022-07-23T12:23:11;2.13;;;1.35;;
45007;SDS011;30743;52.008;5.644;2022-07-23T12:28:09;1.98;;;1.20;;
45007;SDS011;30743;52.008;5.644;2022-07-23T12:30:53;4.60;;;1.10;;
45007;SDS011;30743;52.008;5.644;2022-07-23T12:33:41;1.48;;;1.08;;
45007;SDS011;30743;52.008;5.644;2022-07-23T12:36:07;2.38;;;1.60;;
45007;SDS011;30743;52.008;5.644;2022-07-23T12:38:38;2.05;;;1.48;;
45007;SDS011;30743;52.008;5.644;2022-07-23T12:41:08;4.72;;;1.17;;
45007;SDS011;30743;52.008;5.644;2022-07-23T12:43:38;2.45;;;1.17;;
45007;SDS011;30743;52.008;5.644;2022-07-23T12:46:12;3.63;;;1.40;;
45007;SDS011;30743;52.008;5.644;2022-07-23T12:48:50;1.80;;;1.25;;
45007;SDS011;30743;52.008;5.644;2022-07-23T12:53:57;2.50;;;1.70;;
45007;SDS011;30743;52.008;5.644;2022-07-23T12:56:32;2.95;;;1.60;;
45007;SDS011;30743;52.008;5.644;2022-07-23T13:01:29;3.15;;;1.50;;
45007;SDS011;30743;52.008;5.644;2022-07-23T13:03:57;4.68;;;2.03;;
45007;SDS011;30743;52.008;5.644;2022-07-23T13:06:25;2.20;;;1.33;;
45007;SDS011;30743;52.008;5.644;2022-07-23T13:08:54;3.35;;;1.25;;
45007;SDS011;30743;52.008;5.644;2022-07-23T13:11:20;2.78;;;1.50;;
45007;SDS011;30743;52.008;5.644;2022-07-23T13:13:46;3.35;;;1.45;;
45007;SDS011;30743;52.008;5.644;2022-07-23T13:16:11;5.47;;;1.58;;
45007;SDS011;30743;52.008;5.644;2022-07-23T13:18:37;2.67;;;1.60;;
45007;SDS011;30743;52.008;5.644;2022-07-23T13:21:03;4.18;;;1.63;;
45007;SDS011;30743;52.008;5.644;2022-07-23T13:23:28;2.80;;;1.38;;
45007;SDS011;30743;52.008;5.644;2022-07-23T13:25:54;2.47;;;1.27;;
45007;SDS011;30743;52.008;5.644;2022-07-23T13:28:20;3.20;;;1.38;;
45007;SDS011;30743;52.008;5.644;2022-07-23T13:30:47;2.47;;;1.30;;
45007;SDS011;30743;52.008;5.644;2022-07-23T13:33:15;3.08;;;1.15;;
45007;SDS011;30743;52.008;5.644;2022-07-23T13:35:44;8.27;;;1.50;;
45007;SDS011;30743;52.008;5.644;2022-07-23T13:38:10;1.70;;;1.30;;
45007;SDS011;30743;52.008;5.644;2022-07-23T13:40:36;1.58;;;1.00;;
45007;SDS011;30743;52.008;5.644;2022-07-23T13:43:04;3.63;;;1.35;;
45007;SDS011;30743;52.008;5.644;2022-07-23T13:45:31;3.33;;;1.47;;
45007;SDS011;30743;52.008;5.644;2022-07-23T13:47:58;2.00;;;1.30;;
45007;SDS011;30743;52.008;5.644;2022-07-23T13:50:23;1.95;;;1.27;;
45007;SDS011;30743;52.008;5.644;2022-07-23T13:52:49;3.13;;;1.60;;
45007;SDS011;30743;52.008;5.644;2022-07-23T13:55:14;2.38;;;1.40;;
45007;SDS011;30743;52.008;5.644;2022-07-23T13:57:40;3.70;;;1.40;;
45007;SDS011;30743;52.008;5.644;2022-07-23T14:00:05;4.70;;;1.60;;
45007;SDS011;30743;52.008;5.644;2022-07-23T14:02:34;3.10;;;1.47;;
45007;SDS011;30743;52.008;5.644;2022-07-23T14:05:01;1.23;;;1.13;;
45007;SDS011;30743;52.008;5.644;2022-07-23T14:07:27;3.17;;;1.25;;
45007;SDS011;30743;52.008;5.644;2022-07-23T14:09:53;3.22;;;1.40;;
45007;SDS011;30743;52.008;5.644;2022-07-23T14:12:18;1.67;;;1.30;;
45007;SDS011;30743;52.008;5.644;2022-07-23T14:14:44;2.13;;;1.20;;
45007;SDS011;30743;52.008;5.644;2022-07-23T14:17:09;4.80;;;1.40;;
45007;SDS011;30743;52.008;5.644;2022-07-23T14:19:35;2.13;;;1.20;;
45007;SDS011;30743;52.008;5.644;2022-07-23T14:22:01;1.75;;;1.33;;
45007;SDS011;30743;52.008;5.644;2022-07-23T14:24:26;1.90;;;1.35;;
45007;SDS011;30743;52.008;5.644;2022-07-23T14:26:52;2.38;;;1.02;;
45007;SDS011;30743;52.008;5.644;2022-07-23T14:29:17;1.98;;;1.35;;
45007;SDS011;30743;52.008;5.644;2022-07-23T14:31:43;2.50;;;1.50;;
45007;SDS011;30743;52.008;5.644;2022-07-23T14:34:08;2.47;;;1.10;;
45007;SDS011;30743;52.008;5.644;2022-07-23T14:36:34;2.08;;;1.30;;
45007;SDS011;30743;52.008;5.644;2022-07-23T14:39:00;1.42;;;1.23;;
45007;SDS011;30743;52.008;5.644;2022-07-23T14:41:25;2.25;;;1.40;;
45007;SDS011;30743;52.008;5.644;2022-07-23T14:43:51;1.80;;;1.30;;
45007;SDS011;30743;52.008;5.644;2022-07-23T14:46:16;2.90;;;1.23;;
45007;SDS011;30743;52.008;5.644;2022-07-23T14:48:42;2.00;;;1.10;;
45007;SDS011;30743;52.008;5.644;2022-07-23T14:51:07;4.22;;;1.42;;
45007;SDS011;30743;52.008;5.644;2022-07-23T14:53:33;4.45;;;1.30;;
45007;SDS011;30743;52.008;5.644;2022-07-23T14:55:58;2.13;;;1.50;;
45007;SDS011;30743;52.008;5.644;2022-07-23T14:58:24;2.25;;;1.25;;
45007;SDS011;30743;52.008;5.644;2022-07-23T15:00:50;2.67;;;1.45;;
45007;SDS011;30743;52.008;5.644;2022-07-23T15:03:16;2.80;;;1.20;;
45007;SDS011;30743;52.008;5.644;2022-07-23T15:05:42;2.05;;;1.38;;
45007;SDS011;30743;52.008;5.644;2022-07-23T15:08:07;1.90;;;1.02;;
45007;SDS011;30743;52.008;5.644;2022-07-23T15:10:33;1.13;;;1.00;;
45007;SDS011;30743;52.008;5.644;2022-07-23T15:12:59;1.98;;;1.35;;
45007;SDS011;30743;52.008;5.644;2022-07-23T15:15:24;4.13;;;1.30;;
45007;SDS011;30743;52.008;5.644;2022-07-23T15:17:50;3.13;;;1.45;;
45007;SDS011;30743;52.008;5.644;2022-07-23T15:20:15;2.17;;;1.20;;
45007;SDS011;30743;52.008;5.644;2022-07-23T15:22:41;3.33;;;1.20;;
45007;SDS011;30743;52.008;5.644;2022-07-23T15:25:07;2.15;;;1.30;;
45007;SDS011;30743;52.008;5.644;2022-07-23T15:27:33;1.83;;;1.13;;
45007;SDS011;30743;52.008;5.644;2022-07-23T15:29:59;3.50;;;1.30;;
45007;SDS011;30743;52.008;5.644;2022-07-23T15:32:24;2.45;;;1.50;;
45007;SDS011;30743;52.008;5.644;2022-07-23T15:34:51;1.67;;;1.10;;
45007;SDS011;30743;52.008;5.644;2022-07-23T15:37:18;3.58;;;1.30;;
45007;SDS011;30743;52.008;5.644;2022-07-23T15:39:43;2.25;;;1.20;;
45007;SDS011;30743;52.008;5.644;2022-07-23T15:42:09;1.67;;;1.02;;
45007;SDS011;30743;52.008;5.644;2022-07-23T15:44:35;2.83;;;1.17;;
45007;SDS011;30743;52.008;5.644;2022-07-23T15:47:00;3.42;;;1.60;;